Time;durP1;ratioP1;P1;durP2;ratioP2;P2;SDS_P1;SDS_P2;PMS_P1;PMS_P2;Temp;Humidity;BMP_temperature;BMP_pressure;BME280_temperature;BME280_humidity;BME280_pressure;Samples;Min_cycle;Max_cycle;Signal;HPM_P1;HPM_P2
2023/05/18 00:00:18;;;;;;;3.90;1.85;;;;;;;8.85;100.00;98757.34;4501413;31;20445;-65
2023/05/18 00:02:49;;;;;;;2.78;1.77;;;;;;;8.92;100.00;98754.22;4501132;31;20140;-65
2023/05/18 00:05:19;;;;;;;2.75;2.03;;;;;;;8.92;100.00;98756.84;4501634;31;20079;-65
2023/05/18 00:07:46;;;;;;;3.30;1.92;;;;;;;8.85;100.00;98752.13;4501146;31;20092;-65
2023/05/18 00:10:13;;;;;;;4.50;2.10;;;;;;;8.86;100.00;98759.00;4501428;31;20088;-65
2023/05/18 00:12:40;;;;;;;3.97;1.83;;;;;;;8.87;100.00;98759.84;4493753;31;20120;-65
2023/05/18 00:15:09;;;;;;;3.55;2.05;;;;;;;8.86;100.00;98755.59;4490088;31;20145;-65
2023/05/18 00:17:36;;;;;;;3.45;2.40;;;;;;;8.90;100.00;98762.19;4499992;31;20108;-65
2023/05/18 00:20:04;;;;;;;3.15;2.00;;;;;;;8.88;100.00;98754.47;4501442;31;20104;-65
2023/05/18 00:22:31;;;;;;;2.72;1.80;;;;;;;8.88;100.00;98756.28;4501076;31;20489;-65
2023/05/18 00:24:59;;;;;;;2.85;1.80;;;;;;;8.94;100.00;98771.44;4501209;31;20088;-65
2023/05/18 00:27:26;;;;;;;2.92;1.80;;;;;;;8.91;100.00;98771.69;4500901;31;20104;-65
2023/05/18 00:29:53;;;;;;;3.67;2.22;;;;;;;8.93;100.00;98761.13;4501114;31;20100;-65
2023/05/18 00:32:20;;;;;;;2.92;1.60;;;;;;;8.95;100.00;98770.50;4501148;31;20122;-65
2023/05/18 00:34:47;;;;;;;3.95;1.95;;;;;;;8.93;100.00;98764.53;4501102;31;20180;-65
2023/05/18 00:37:15;;;;;;;3.25;2.00;;;;;;;8.95;100.00;98767.03;4500860;31;20191;-65
2023/05/18 00:39:43;;;;;;;3.70;2.17;;;;;;;8.94;100.00;98770.62;4501082;31;20111;-65
2023/05/18 00:42:11;;;;;;;6.12;2.10;;;;;;;8.93;100.00;98763.72;4500884;31;20100;-65
2023/05/18 00:44:38;;;;;;;2.87;2.05;;;;;;;8.88;100.00;98769.34;4501179;31;20155;-65
2023/05/18 00:47:05;;;;;;;1.98;1.37;;;;;;;8.92;100.00;98768.13;4500753;31;20080;-65
2023/05/18 00:49:33;;;;;;;2.35;1.50;;;;;;;8.95;100.00;98767.03;4500911;31;20099;-65
2023/05/18 00:52:01;;;;;;;3.17;2.12;;;;;;;8.93;100.00;98763.72;4499866;31;20138;-65
2023/05/18 00:54:28;;;;;;;5.47;2.53;;;;;;;8.94;100.00;98770.62;4500729;31;20122;-65
2023/05/18 00:57:00;;;;;;;5.70;2.22;;;;;;;8.92;100.00;98773.34;4500575;31;20088;-65
2023/05/18 00:59:29;;;;;;;3.92;2.40;;;;;;;8.81;100.00;98776.00;4500737;31;20441;-65
2023/05/18 01:01:56;;;;;;;2.85;1.90;;;;;;;8.77;100.00;98775.44;4499402;31;20095;-65
2023/05/18 01:04:26;;;;;;;6.72;2.08;;;;;;;8.77;100.00;98769.41;4499456;31;20164;-65
2023/05/18 01:06:55;;;;;;;3.47;1.90;;;;;;;8.81;100.00;98765.56;4500594;31;20160;-65
2023/05/18 01:09:22;;;;;;;5.30;1.80;;;;;;;8.84;100.00;98786.22;4500874;31;20099;-65
2023/05/18 01:12:16;;;;;;;3.55;2.45;;;;;;;8.76;100.00;98778.19;4497644;31;20122;-65
2023/05/18 01:14:49;;;;;;;3.37;2.08;;;;;;;8.70;100.00;98780.34;4485563;31;20176;-65
2023/05/18 01:17:32;;;;;;;3.37;2.20;;;;;;;8.76;100.00;98783.41;4500579;31;20110;-65
2023/05/18 01:20:06;;;;;;;5.32;2.40;;;;;;;8.75;100.00;98789.56;4499331;31;20099;-65
2023/05/18 01:22:55;;;;;;;5.18;2.28;;;;;;;8.75;100.00;98787.81;4500629;31;20100;-65
2023/05/18 01:25:52;;;;;;;5.10;2.35;;;;;;;8.76;100.00;98794.66;4500608;31;20192;-65
2023/05/18 01:28:26;;;;;;;3.78;2.47;;;;;;;8.72;100.00;98798.50;4500232;31;20118;-65
2023/05/18 01:30:54;;;;;;;3.53;2.17;;;;;;;8.67;100.00;98790.19;4499022;31;20144;-65
2023/05/18 01:33:23;;;;;;;2.95;2.08;;;;;;;8.69;100.00;98799.56;4500455;31;20080;-65
2023/05/18 01:35:50;;;;;;;4.07;2.20;;;;;;;8.67;100.00;98796.25;4500263;31;20160;-65
2023/05/18 01:38:26;;;;;;;6.70;2.55;;;;;;;8.68;100.00;98794.47;4500247;31;20114;-65
2023/05/18 01:41:25;;;;;;;3.65;2.00;;;;;;;8.71;100.00;98802.06;4501599;31;20552;-65
2023/05/18 01:44:18;;;;;;;5.82;3.50;;;;;;;8.70;100.00;98796.03;4487816;31;20104;-65
2023/05/18 01:46:49;;;;;;;5.22;2.45;;;;;;;8.65;100.00;98803.38;4437324;32;20124;-65
2023/05/18 01:49:23;;;;;;;3.53;2.35;;;;;;;8.66;100.00;98814.66;4437037;32;20182;-65
2023/05/18 01:51:52;;;;;;;4.40;2.25;;;;;;;8.63;100.00;98809.66;4437097;32;20082;-65
2023/05/18 01:54:20;;;;;;;5.15;3.03;;;;;;;8.58;100.00;98807.44;4437273;32;20113;-65
2023/05/18 01:56:48;;;;;;;4.05;2.85;;;;;;;8.64;100.00;98811.34;4424151;32;20093;-65
2023/05/18 01:59:15;;;;;;;4.60;2.87;;;;;;;8.60;100.00;98820.37;4437231;32;20600;-65
2023/05/18 02:01:44;;;;;;;5.53;2.37;;;;;;;8.62;100.00;98814.06;4424620;32;20327;-65
2023/05/18 02:04:11;;;;;;;3.95;2.37;;;;;;;8.61;100.00;98816.81;4436847;32;20563;-65
2023/05/18 02:06:38;;;;;;;5.22;2.80;;;;;;;8.60;100.00;98825.59;4437256;32;20182;-65
2023/05/18 02:09:07;;;;;;;4.72;2.45;;;;;;;8.63;100.00;98823.56;4437143;32;20105;-65
2023/05/18 02:11:35;;;;;;;9.30;2.90;;;;;;;8.63;100.00;98823.56;4436947;32;20153;-65
2023/05/18 02:14:02;;;;;;;6.47;2.80;;;;;;;8.62;100.00;98819.28;4421521;32;20138;-65
2023/05/18 02:16:29;;;;;;;4.75;2.40;;;;;;;8.62;100.00;98828.94;4421921;32;20144;-65
2023/05/18 02:18:59;;;;;;;4.72;2.35;;;;;;;8.58;100.00;98824.91;4421681;32;20489;-65
2023/05/18 02:21:26;;;;;;;4.35;2.08;;;;;;;8.58;100.00;98832.72;4421604;32;20115;-65
2023/05/18 02:23:54;;;;;;;3.10;2.25;;;;;;;8.64;100.00;98833.06;4454875;32;20119;-65
2023/05/18 02:26:21;;;;;;;2.75;1.92;;;;;;;8.66;100.00;98833.78;4486135;31;20126;-65
2023/05/18 02:28:51;;;;;;;4.97;2.40;;;;;;;8.66;100.00;98836.38;4485878;32;20087;-65
2023/05/18 02:31:18;;;;;;;4.40;2.70;;;;;;;8.64;100.00;98840.88;4486051;31;20088;-65
2023/05/18 02:33:45;;;;;;;5.60;2.35;;;;;;;8.65;100.00;98833.91;4485954;31;20210;-65
2023/05/18 02:36:13;;;;;;;3.85;2.55;;;;;;;8.66;100.00;98838.16;4485923;32;20183;-65
2023/05/18 02:38:42;;;;;;;8.13;2.65;;;;;;;8.62;100.00;98834.97;4485878;32;20088;-65
2023/05/18 02:41:10;;;;;;;3.87;2.33;;;;;;;8.59;100.00;98839.62;4486278;31;20104;-65
2023/05/18 02:43:38;;;;;;;6.10;2.78;;;;;;;8.59;100.00;98840.44;4484532;32;20127;-65
2023/05/18 02:46:06;;;;;;;4.30;2.67;;;;;;;8.58;100.00;98833.53;4486207;31;20559;-65
2023/05/18 02:48:34;;;;;;;4.30;2.60;;;;;;;8.58;100.00;98844.00;4485997;31;20167;-65
2023/05/18 02:51:02;;;;;;;6.93;2.72;;;;;;;8.56;100.00;98845.91;4485802;31;20446;-65
2023/05/18 02:53:29;;;;;;;3.37;2.37;;;;;;;8.61;100.00;98840.31;4486210;31;20157;-64
2023/05/18 02:55:57;;;;;;;5.55;2.75;;;;;;;8.63;100.00;98841.84;4486080;31;20095;-64
2023/05/18 02:58:25;;;;;;;4.07;2.45;;;;;;;8.63;100.00;98836.63;4486127;32;20151;-64
2023/05/18 03:00:54;;;;;;;4.32;2.37;;;;;;;8.64;100.00;98848.72;4486079;31;20080;-64
2023/05/18 03:03:24;;;;;;;4.90;1.95;;;;;;;8.63;100.00;98841.00;4486000;32;20104;-65
2023/05/18 03:05:52;;;;;;;2.12;1.67;;;;;;;8.68;100.00;98842.31;4486014;31;20093;-65
2023/05/18 03:08:22;;;;;;;2.83;1.67;;;;;;;8.70;100.00;98840.41;4485693;31;20119;-65
2023/05/18 03:10:49;;;;;;;3.78;1.92;;;;;;;8.76;100.00;98840.88;4485657;32;20144;-65
2023/05/18 03:13:17;;;;;;;3.20;1.95;;;;;;;8.81;100.00;98844.78;4497063;31;20143;-66
2023/05/18 03:15:48;;;;;;;2.87;1.65;;;;;;;8.78;100.00;98850.25;4492859;31;20156;-66
2023/05/18 03:18:16;;;;;;;3.05;1.98;;;;;;;8.85;100.00;98853.19;4485855;32;20083;-66
2023/05/18 03:20:43;;;;;;;3.12;1.60;;;;;;;8.81;100.00;98854.38;4485608;32;20153;-66
2023/05/18 03:23:11;;;;;;;2.80;1.60;;;;;;;8.83;100.00;98855.91;4486060;31;20096;-66
2023/05/18 03:25:38;;;;;;;2.80;1.98;;;;;;;8.86;100.00;98857.47;4485553;31;20100;-66
2023/05/18 03:28:05;;;;;;;2.53;1.73;;;;;;;8.87;100.00;98853.88;4486127;32;20095;-66
2023/05/18 03:30:33;;;;;;;4.95;1.95;;;;;;;8.87;100.00;98849.50;4485861;31;20155;-67
2023/05/18 03:33:01;;;;;;;5.82;1.95;;;;;;;8.86;100.00;98852.25;4485791;31;20501;-66
2023/05/18 03:35:29;;;;;;;3.70;1.98;;;;;;;8.91;100.00;98864.94;4485792;31;20126;-66
2023/05/18 03:37:56;;;;;;;3.55;2.15;;;;;;;8.85;100.00;98859.22;4485457;31;20164;-66
2023/05/18 03:40:24;;;;;;;5.68;2.58;;;;;;;8.81;100.00;98862.22;4485765;32;20096;-67
2023/05/18 03:42:51;;;;;;;3.30;2.12;;;;;;;8.77;100.00;98860.81;4485587;32;20109;-66
2023/05/18 03:45:19;;;;;;;4.93;2.50;;;;;;;8.70;100.00;98860.47;4485382;31;20128;-66
2023/05/18 03:47:46;;;;;;;4.40;2.70;;;;;;;8.71;100.00;98867.34;4485700;31;20104;-66
2023/05/18 03:50:14;;;;;;;3.65;2.28;;;;;;;8.76;100.00;98867.00;4485314;31;20517;-66
2023/05/18 03:52:43;;;;;;;4.70;2.58;;;;;;;8.78;100.00;98872.91;4485876;31;20089;-66
2023/05/18 03:55:10;;;;;;;6.82;2.92;;;;;;;8.80;100.00;98876.25;4485633;31;20156;-66
2023/05/18 03:57:38;;;;;;;4.10;2.45;;;;;;;8.75;100.00;98881.84;4484080;32;20367;-66
2023/05/18 04:00:10;;;;;;;3.17;2.28;;;;;;;8.80;100.00;98878.84;4485298;31;20084;-66
2023/05/18 04:02:43;;;;;;;5.82;2.83;;;;;;;8.78;100.00;98880.75;4484746;31;20080;-66
2023/05/18 04:05:11;;;;;;;6.05;3.00;;;;;;;8.75;100.00;98881.00;4485715;31;20096;-65
2023/05/18 04:07:42;;;;;;;4.70;2.90;;;;;;;8.74;100.00;98889.81;4485332;31;20088;-66
2023/05/18 04:10:11;;;;;;;6.40;3.40;;;;;;;8.67;100.00;98884.22;4485568;31;20076;-66
2023/05/18 04:12:39;;;;;;;4.30;2.95;;;;;;;8.66;100.00;98886.00;4492478;31;20153;-66
2023/05/18 04:15:07;;;;;;;5.70;2.97;;;;;;;8.69;100.00;98891.00;4495484;31;20112;-66
2023/05/18 04:17:34;;;;;;;6.10;3.42;;;;;;;8.67;100.00;98887.66;4485046;31;20096;-65
2023/05/18 04:20:10;;;;;;;4.93;3.40;;;;;;;8.67;100.00;98885.03;4485165;32;20552;-65
2023/05/18 04:22:47;;;;;;;7.28;3.28;;;;;;;8.63;100.00;98890.63;4485262;31;20453;-65
2023/05/18 04:25:16;;;;;;;6.37;3.53;;;;;;;8.64;100.00;98889.69;4485534;31;20423;-65
2023/05/18 04:27:44;;;;;;;6.35;3.50;;;;;;;8.70;100.00;98891.81;4484482;31;20167;-65
2023/05/18 04:30:12;;;;;;;5.60;3.10;;;;;;;8.69;100.00;98900.59;4484576;31;20096;-64
2023/05/18 04:32:41;;;;;;;7.25;3.30;;;;;;;8.72;100.00;98892.53;4484444;32;20131;-66
2023/05/18 04:35:10;;;;;;;5.87;3.33;;;;;;;8.70;100.00;98900.50;4484155;32;20091;-66
2023/05/18 04:37:41;;;;;;;7.47;3.95;;;;;;;8.69;100.00;98900.59;4483235;32;20125;-65
2023/05/18 04:40:15;;;;;;;6.47;4.20;;;;;;;8.68;100.00;98904.16;4484538;31;20076;-65
2023/05/18 04:42:46;;;;;;;5.53;3.50;;;;;;;8.69;100.00;98901.44;4484294;31;20088;-65
2023/05/18 04:45:20;;;;;;;7.87;3.45;;;;;;;8.75;100.00;98904.50;4482197;31;20093;-66
2023/05/18 04:47:52;;;;;;;7.70;3.60;;;;;;;8.79;100.00;98898.91;4482712;31;20135;-66
2023/05/18 04:50:24;;;;;;;6.68;3.85;;;;;;;8.80;100.00;98903.19;4484465;31;20115;-66
2023/05/18 04:52:51;;;;;;;4.75;2.97;;;;;;;8.85;100.00;98902.81;4484364;32;20088;-66
2023/05/18 04:55:26;;;;;;;7.07;4.12;;;;;;;8.87;100.00;98901.75;4484828;31;20123;-66
2023/05/18 04:57:56;;;;;;;7.22;4.03;;;;;;;8.87;100.00;98906.13;4485105;31;20106;-66
2023/05/18 05:00:24;;;;;;;8.07;3.90;;;;;;;8.86;100.00;98909.72;4491808;31;20108;-66
2023/05/18 05:02:52;;;;;;;7.55;4.45;;;;;;;8.90;100.00;98905.88;4499836;31;20224;-66
2023/05/18 05:05:21;;;;;;;8.13;4.85;;;;;;;8.99;100.00;98910.41;4492387;31;20096;-66
2023/05/18 05:07:50;;;;;;;6.37;4.03;;;;;;;9.01;100.00;98908.47;4496241;31;20448;-67
2023/05/18 05:10:18;;;;;;;6.22;4.10;;;;;;;9.04;100.00;98913.44;4492867;31;20538;-67
2023/05/18 05:12:48;;;;;;;6.43;4.18;;;;;;;8.99;100.00;98914.78;4495278;31;20190;-67
2023/05/18 05:15:16;;;;;;;7.18;4.25;;;;;;;9.00;100.00;98919.06;4492792;31;20145;-65
2023/05/18 05:17:45;;;;;;;8.52;5.22;;;;;;;9.12;100.00;98920.66;4498616;31;20123;-65
2023/05/18 05:20:13;;;;;;;8.32;5.32;;;;;;;9.10;100.00;98916.50;4494547;31;20728;-67
2023/05/18 05:22:41;;;;;;;9.23;5.30;;;;;;;9.09;100.00;98922.72;4488270;31;20108;-67
2023/05/18 05:25:08;;;;;;;7.78;4.93;;;;;;;9.14;100.00;98923.97;4492345;31;20548;-67
2023/05/18 05:27:35;;;;;;;8.48;4.60;;;;;;;9.19;100.00;98926.22;4490849;31;20449;-67
2023/05/18 05:30:03;;;;;;;9.25;4.57;;;;;;;9.21;100.00;98924.34;4494475;31;20113;-66
2023/05/18 05:32:31;;;;;;;6.60;4.20;;;;;;;9.15;100.00;98930.88;4494781;31;20123;-66
2023/05/18 05:34:59;;;;;;;6.82;4.12;;;;;;;9.23;100.00;98930.25;4494529;31;20115;-66
2023/05/18 05:37:27;;;;;;;6.32;4.12;;;;;;;9.19;100.00;98931.44;4490125;31;20103;-66
2023/05/18 05:39:55;;;;;;;7.87;4.68;;;;;;;9.29;100.00;98934.16;4495962;31;20516;-66
2023/05/18 05:42:24;;;;;;;7.40;4.90;;;;;;;9.35;100.00;98934.47;4500027;31;20123;-66
2023/05/18 05:44:51;;;;;;;7.90;4.12;;;;;;;9.40;100.00;98936.72;4490263;31;20152;-67
2023/05/18 05:47:19;;;;;;;5.78;4.12;;;;;;;9.29;100.00;98932.38;4492758;31;20116;-67
2023/05/18 05:49:46;;;;;;;12.95;4.70;;;;;;;9.34;100.00;98930.22;4498312;31;20103;-67
2023/05/18 05:52:13;;;;;;;10.20;4.78;;;;;;;9.33;100.00;98946.84;4497297;31;20124;-67
2023/05/18 05:54:41;;;;;;;9.00;5.00;;;;;;;9.38;100.00;98936.84;4496370;31;20119;-67
2023/05/18 05:57:08;;;;;;;6.57;4.18;;;;;;;9.36;100.00;98935.34;4498543;31;20088;-66
2023/05/18 05:59:36;;;;;;;8.88;4.85;;;;;;;9.36;100.00;98944.00;4498322;31;20687;-66
2023/05/18 06:02:04;;;;;;;11.77;7.12;;;;;;;9.40;100.00;98945.41;4499277;31;20092;-67
2023/05/18 06:04:31;;;;;;;9.48;5.97;;;;;;;9.40;100.00;98949.78;4495589;31;20178;-67
2023/05/18 06:06:59;;;;;;;9.88;5.35;;;;;;;9.49;100.00;98959.53;4490648;31;20091;-66
2023/05/18 06:09:27;;;;;;;11.45;7.07;;;;;;;9.50;100.00;98953.31;4481558;31;20148;-67
2023/05/18 06:11:55;;;;;;;10.48;5.57;;;;;;;9.58;100.00;98960.53;4489853;31;20104;-67
2023/05/18 06:14:24;;;;;;;10.18;5.55;;;;;;;9.66;100.00;98952.06;4486533;31;20131;-67
2023/05/18 06:16:51;;;;;;;8.85;4.93;;;;;;;9.65;100.00;98958.25;4484073;31;20104;-66
2023/05/18 06:19:18;;;;;;;7.62;4.80;;;;;;;9.69;100.00;98963.13;4490146;31;20107;-66
2023/05/18 06:21:45;;;;;;;6.25;3.92;;;;;;;9.60;100.00;98963.87;4483750;31;20105;-67
2023/05/18 06:24:13;;;;;;;8.65;4.03;;;;;;;9.64;100.00;98970.50;4484022;31;20123;-67
2023/05/18 06:26:41;;;;;;;7.25;3.67;;;;;;;9.60;100.00;98976.94;4485499;31;20159;-67
2023/05/18 06:29:08;;;;;;;5.82;3.58;;;;;;;9.53;100.00;98970.56;4486557;31;20532;-67
2023/05/18 06:31:35;;;;;;;5.05;3.53;;;;;;;9.60;100.00;98974.34;4485395;31;20215;-66
2023/05/18 06:34:03;;;;;;;7.15;3.67;;;;;;;9.58;100.00;98973.59;4488290;31;20108;-66
2023/05/18 06:36:31;;;;;;;5.37;3.28;;;;;;;9.57;100.00;98975.41;4480086;31;20100;-66
2023/05/18 06:38:58;;;;;;;6.40;3.15;;;;;;;9.62;100.00;98974.22;4486908;31;20122;-67
2023/05/18 06:41:26;;;;;;;7.45;3.00;;;;;;;9.60;100.00;98971.72;4484403;31;20517;-66
2023/05/18 06:43:53;;;;;;;5.43;3.62;;;;;;;9.71;100.00;98987.34;4487292;31;20133;-66
2023/05/18 06:46:22;;;;;;;4.43;2.83;;;;;;;9.73;100.00;98990.66;4485706;31;20096;-66
2023/05/18 06:48:50;;;;;;;5.32;2.70;;;;;;;9.68;100.00;98987.59;4490837;31;20104;-66
2023/05/18 06:51:17;;;;;;;3.85;2.75;;;;;;;9.81;100.00;98983.97;4486842;31;20138;-66
2023/05/18 06:53:45;;;;;;;4.30;2.97;;;;;;;9.77;100.00;98986.84;4487769;31;20882;-66
2023/05/18 06:56:13;;;;;;;5.15;3.12;;;;;;;9.83;100.00;98990.75;4487911;31;20088;-65
2023/05/18 06:58:41;;;;;;;4.97;2.67;;;;;;;9.93;100.00;98991.66;4486562;31;20167;-65
2023/05/18 07:01:09;;;;;;;4.97;2.72;;;;;;;10.00;100.00;98991.12;4484368;31;20434;-66
2023/05/18 07:03:37;;;;;;;4.40;2.58;;;;;;;10.00;100.00;98994.56;4487666;31;20450;-66
2023/05/18 07:06:05;;;;;;;8.90;3.47;;;;;;;9.91;100.00;98992.72;4475685;31;20122;-65
2023/05/18 07:08:32;;;;;;;5.78;3.55;;;;;;;9.86;100.00;98997.53;4485163;31;20084;-64
2023/05/18 07:11:01;;;;;;;4.15;2.87;;;;;;;9.90;100.00;98996.28;4485922;31;20114;-66
2023/05/18 07:13:28;;;;;;;6.25;3.20;;;;;;;9.79;100.00;99006.81;4484808;31;20088;-66
2023/05/18 07:15:56;;;;;;;5.50;3.72;;;;;;;9.85;100.00;99006.31;4483995;31;20170;-66
2023/05/18 07:18:23;;;;;;;5.10;3.45;;;;;;;9.91;100.00;99004.00;4483507;31;20963;-64
2023/05/18 07:20:51;;;;;;;5.03;3.22;;;;;;;9.94;100.00;99010.78;4484905;31;20174;-64
2023/05/18 07:23:18;;;;;;;4.78;3.25;;;;;;;9.98;100.00;99009.59;4485521;31;20092;-66
2023/05/18 07:25:46;;;;;;;5.05;3.20;;;;;;;9.98;100.00;99011.34;4486660;31;20104;-64
2023/05/18 07:28:13;;;;;;;4.20;3.05;;;;;;;10.02;100.00;99003.16;4483597;31;20100;-66
2023/05/18 07:30:41;;;;;;;4.90;2.90;;;;;;;10.09;100.00;99014.75;4482516;31;20117;-67
2023/05/18 07:33:08;;;;;;;5.60;2.72;;;;;;;10.15;100.00;99010.78;4484929;31;20406;-66
2023/05/18 07:35:35;;;;;;;3.28;2.20;;;;;;;10.22;100.00;99019.81;4483401;31;20092;-66
2023/05/18 07:38:02;;;;;;;4.20;2.78;;;;;;;10.23;100.00;99018.81;4486048;31;20159;-66
2023/05/18 07:40:30;;;;;;;4.30;2.50;;;;;;;10.30;100.00;99013.91;4484019;31;20112;-66
2023/05/18 07:42:57;;;;;;;3.05;2.28;;;;;;;10.39;100.00;99020.19;4483705;31;20126;-67
2023/05/18 07:45:25;;;;;;;2.58;1.70;;;;;;;10.52;100.00;99028.66;4482640;31;20111;-66
2023/05/18 07:47:53;;;;;;;2.87;1.77;;;;;;;10.50;100.00;99029.75;4484581;31;20480;-67
2023/05/18 07:50:20;;;;;;;3.22;1.95;;;;;;;10.43;100.00;99032.91;4479467;31;82506;-67
2023/05/18 07:52:47;;;;;;;3.10;1.73;;;;;;;10.42;100.00;99035.66;4484689;31;20099;-67
2023/05/18 07:55:15;;;;;;;5.25;2.00;;;;;;;10.56;100.00;99031.88;4488316;31;20184;-68
2023/05/18 07:57:42;;;;;;;3.50;1.77;;;;;;;10.72;100.00;99032.22;4487314;31;20152;-67
2023/05/18 08:00:10;;;;;;;3.53;1.80;;;;;;;10.75;100.00;99037.19;4485518;31;20538;-66
2023/05/18 08:02:38;;;;;;;2.72;1.80;;;;;;;10.87;100.00;99034.47;4482538;31;20126;-67
2023/05/18 08:05:08;;;;;;;3.42;2.00;;;;;;;11.08;100.00;99037.03;4481395;31;20503;-66
2023/05/18 08:07:35;;;;;;;3.58;2.10;;;;;;;11.10;100.00;99035.94;4485574;31;20121;-67
2023/05/18 08:10:04;;;;;;;2.10;1.50;;;;;;;11.29;100.00;99037.75;4485251;31;20131;-65
2023/05/18 08:12:31;;;;;;;5.68;1.90;;;;;;;11.47;100.00;99043.16;4485028;31;20156;-64
2023/05/18 08:14:59;;;;;;;2.75;2.10;;;;;;;11.43;100.00;99044.44;4487546;31;20092;-65
2023/05/18 08:17:26;;;;;;;4.55;1.90;;;;;;;11.56;100.00;99041.53;4485153;31;20131;-64
2023/05/18 08:19:54;;;;;;;2.75;1.73;;;;;;;11.73;100.00;99047.87;4486860;31;20187;-64
2023/05/18 08:22:21;;;;;;;2.05;1.30;;;;;;;11.65;100.00;99048.59;4488577;31;20096;-65
2023/05/18 08:24:48;;;;;;;3.00;1.50;;;;;;;11.49;100.00;99049.13;4484035;31;20095;-68
2023/05/18 08:27:16;;;;;;;3.47;1.58;;;;;;;11.57;100.00;99055.47;4484024;31;20617;-65
2023/05/18 08:29:43;;;;;;;3.25;2.17;;;;;;;11.91;100.00;99053.28;4483973;31;20100;-64
2023/05/18 08:32:10;;;;;;;1.40;1.20;;;;;;;12.09;100.00;99056.06;4482991;31;20123;-64
2023/05/18 08:34:38;;;;;;;2.20;1.33;;;;;;;11.91;100.00;99061.16;4485221;31;20100;-65
2023/05/18 08:37:06;;;;;;;2.30;1.20;;;;;;;11.99;100.00;99050.84;4485135;31;20126;-65
2023/05/18 08:39:33;;;;;;;2.72;1.23;;;;;;;11.95;100.00;99061.75;4489293;31;20133;-65
2023/05/18 08:42:07;;;;;;;3.92;1.35;;;;;;;11.92;100.00;99056.75;4482613;31;20112;-64
2023/05/18 08:44:45;;;;;;;;;;;;;;;11.99;100.00;99058.72;4483096;31;20087;-63
2023/05/18 08:47:13;;;;;;;1.50;0.80;;;;;;;11.92;100.00;99062.81;4485021;31;20013;-63
2023/05/18 08:49:43;;;;;;;0.75;0.65;;;;;;;11.95;100.00;99061.75;4486575;31;20100;-63
2023/05/18 08:52:15;;;;;;;2.33;1.00;;;;;;;11.68;100.00;99056.19;4482571;31;20148;-64
2023/05/18 08:54:43;;;;;;;0.77;0.60;;;;;;;11.72;100.00;99067.25;4484359;31;20095;-64
2023/05/18 08:57:11;;;;;;;1.05;0.90;;;;;;;11.84;100.00;99057.41;4483122;31;20506;-64
2023/05/18 08:59:41;;;;;;;5.85;0.93;;;;;;;12.04;100.00;99067.00;4480004;31;20449;-64
2023/05/18 09:02:09;;;;;;;0.62;0.60;;;;;;;12.15;100.00;99070.44;4482843;31;20099;-65
2023/05/18 09:04:37;;;;;;;1.15;0.75;;;;;;;12.32;100.00;99068.91;4484078;31;20110;-64
2023/05/18 09:07:05;;;;;;;0.55;0.50;;;;;;;12.54;100.00;99063.31;4480813;31;20080;-65
2023/05/18 09:09:33;;;;;;;0.85;0.47;;;;;;;12.46;100.00;99063.22;4481915;31;20104;-64
2023/05/18 09:12:01;;;;;;;1.35;0.80;;;;;;;12.54;100.00;99058.06;4483828;31;20256;-64
2023/05/18 09:14:30;;;;;;;1.15;0.80;;;;;;;12.66;100.00;99060.53;4481256;31;20118;-65
2023/05/18 09:16:59;;;;;;;1.55;0.80;;;;;;;12.73;100.00;99058.97;4485368;31;20166;-64
2023/05/18 09:19:27;;;;;;;0.98;0.60;;;;;;;12.61;100.00;99068.81;4485219;31;20152;-64
2023/05/18 09:21:54;;;;;;;1.65;0.60;;;;;;;12.62;100.00;99064.41;4483962;31;20091;-65
2023/05/18 09:24:21;;;;;;;1.08;0.60;;;;;;;12.36;100.00;99065.03;4486214;31;20103;-64
2023/05/18 09:26:51;;;;;;;0.75;0.60;;;;;;;12.68;100.00;99066.47;4484602;31;20454;-64
2023/05/18 09:29:19;;;;;;;1.67;0.80;;;;;;;12.96;100.00;99057.66;4485286;31;20100;-64
2023/05/18 09:31:47;;;;;;;1.10;0.90;;;;;;;13.37;100.00;99064.37;4479326;31;20545;-64
2023/05/18 09:34:17;;;;;;;0.68;0.62;;;;;;;13.42;100.00;99075.31;4482379;31;20157;-64
2023/05/18 09:36:55;;;;;;;0.82;0.80;;;;;;;13.28;100.00;99072.16;4482751;31;20157;-64
2023/05/18 09:39:23;;;;;;;3.10;0.98;;;;;;;13.29;100.00;99071.19;4483578;31;20103;-63
2023/05/18 09:41:57;;;;;;;0.55;0.47;;;;;;;13.07;100.00;99069.78;4489535;31;20119;-64
2023/05/18 09:44:30;;;;;;;0.60;0.50;;;;;;;13.10;100.00;99076.56;4483020;31;20108;-64
2023/05/18 09:46:58;;;;;;;0.97;0.70;;;;;;;13.25;100.00;99079.53;4484197;31;20095;-64
2023/05/18 09:49:28;;;;;;;1.15;0.70;;;;;;;13.55;100.00;99080.19;4481861;31;20191;-65
2023/05/18 09:51:58;;;;;;;1.12;0.55;;;;;;;13.28;100.00;99085.31;4480061;31;20142;-65
2023/05/18 09:54:26;;;;;;;1.00;0.80;;;;;;;13.18;100.00;99076.63;4480530;31;20122;-64
2023/05/18 09:56:55;;;;;;;1.02;0.73;;;;;;;13.44;100.00;99081.25;4481042;31;20747;-64
2023/05/18 09:59:36;;;;;;;1.25;0.80;;;;;;;13.35;100.00;99082.94;4486434;31;20505;-65
2023/05/18 10:02:04;;;;;;;0.45;0.43;;;;;;;13.19;100.00;99086.19;4493167;31;20502;-63
2023/05/18 10:04:42;;;;;;;0.70;0.60;;;;;;;13.18;100.00;99081.91;4485035;31;20096;-64
2023/05/18 10:07:15;;;;;;;0.90;0.65;;;;;;;13.25;100.00;99082.16;4489529;31;22307;-64
2023/05/18 10:09:44;;;;;;;0.70;0.47;;;;;;;13.20;100.00;99085.25;4495888;31;20092;-64
2023/05/18 10:12:14;;;;;;;2.75;0.65;;;;;;;13.00;100.00;99083.66;4494441;31;20559;-64
2023/05/18 10:14:44;;;;;;;1.50;1.10;;;;;;;13.26;100.00;99078.53;4494707;31;20116;-64
2023/05/18 10:17:12;;;;;;;1.52;0.70;;;;;;;13.31;100.00;99089.47;4494947;31;20114;-65
2023/05/18 10:19:45;;;;;;;1.20;0.70;;;;;;;13.32;100.00;99089.31;4497848;31;20099;-63
2023/05/18 10:22:16;;;;;;;1.12;0.90;;;;;;;13.52;100.00;99088.41;4490649;31;20125;-64
2023/05/18 10:24:45;;;;;;;1.05;0.80;;;;;;;13.72;100.00;99094.37;4492792;31;20112;-64
2023/05/18 10:27:13;;;;;;;1.77;1.23;;;;;;;13.47;100.00;99092.31;4497350;31;20542;-63
2023/05/18 10:29:41;;;;;;;3.92;1.17;;;;;;;13.58;100.00;99083.38;4484832;31;20107;-65
2023/05/18 10:32:11;;;;;;;1.55;1.20;;;;;;;13.77;100.00;99098.19;4486379;31;20115;-65
2023/05/18 10:34:40;;;;;;;1.92;0.98;;;;;;;13.83;100.00;99092.34;4491024;31;20088;-64
2023/05/18 10:37:09;;;;;;;1.35;0.75;;;;;;;13.82;100.00;99100.38;4485053;31;20096;-65
2023/05/18 10:39:39;;;;;;;1.20;0.88;;;;;;;13.63;100.00;99101.37;4484086;31;20453;-63
2023/05/18 10:42:08;;;;;;;1.58;0.70;;;;;;;13.56;100.00;99103.75;4483935;31;20147;-63
2023/05/18 10:44:36;;;;;;;0.68;0.52;;;;;;;13.49;100.00;99100.06;4493060;31;20100;-63
2023/05/18 10:47:04;;;;;;;1.50;1.00;;;;;;;13.70;100.00;99098.94;4482079;31;20127;-64
2023/05/18 10:49:32;;;;;;;1.00;0.70;;;;;;;13.66;100.00;99090.53;4481766;31;20133;-65
2023/05/18 10:52:02;;;;;;;0.93;0.60;;;;;;;13.51;100.00;99095.47;4481389;31;20163;-64
2023/05/18 10:54:29;;;;;;;1.30;0.80;;;;;;;13.47;100.00;99102.84;4486486;31;20092;-65
2023/05/18 10:56:56;;;;;;;1.23;0.75;;;;;;;13.34;100.00;99091.00;4487657;31;20119;-64
2023/05/18 10:59:23;;;;;;;0.93;0.70;;;;;;;13.16;100.00;99094.37;4494877;31;20193;-66
2023/05/18 11:01:52;;;;;;;0.80;0.70;;;;;;;13.11;100.00;99089.56;4486794;31;20114;-64
2023/05/18 11:04:26;;;;;;;1.27;0.70;;;;;;;13.08;100.00;99089.00;4482650;31;20084;-66
2023/05/18 11:06:56;;;;;;;1.33;0.90;;;;;;;13.23;100.00;99089.34;4490565;31;20116;-64
2023/05/18 11:09:24;;;;;;;1.15;0.90;;;;;;;13.11;100.00;99093.97;4491708;31;20123;-63
2023/05/18 11:11:57;;;;;;;0.47;0.47;;;;;;;13.19;100.00;99094.09;4480038;31;20122;-64
2023/05/18 11:14:34;;;;;;;1.00;0.70;;;;;;;13.09;100.00;99095.94;4486723;31;20189;-65
2023/05/18 11:17:28;;;;;;;1.35;0.62;;;;;;;13.09;100.00;99099.38;4485085;31;20104;-65
2023/05/18 11:20:04;;;;;;;1.00;0.70;;;;;;;13.38;100.00;99097.62;4491863;31;20104;-65
2023/05/18 11:22:57;;;;;;;1.30;0.70;;;;;;;13.55;100.00;99102.09;4490651;31;20156;-65
2023/05/18 11:25:24;;;;;;;0.70;0.70;;;;;;;13.23;100.00;99105.12;4490341;31;20084;-65
2023/05/18 11:28:00;;;;;;;0.75;0.60;;;;;;;13.33;100.00;99103.28;4488754;31;20076;-65
2023/05/18 11:30:29;;;;;;;0.50;0.50;;;;;;;13.36;100.00;99107.47;4484240;31;20093;-63
2023/05/18 11:33:10;;;;;;;0.90;0.60;;;;;;;13.26;100.00;99110.97;4486749;31;20731;-65
2023/05/18 11:36:06;;;;;;;1.02;0.47;;;;;;;13.26;100.00;99110.97;4489587;31;20088;-64
2023/05/18 11:38:53;;;;;;;3.25;0.80;;;;;;;13.31;100.00;99111.34;4488919;31;20115;-65
2023/05/18 11:41:35;;;;;;;1.25;0.80;;;;;;;13.31;100.00;99105.25;4492456;31;20151;-65